Time;durP1;ratioP1;P1;durP2;ratioP2;P2;SDS_P1;SDS_P2;PMS_P1;PMS_P2;Temp;Humidity;BMP_temperature;BMP_pressure;BME280_temperature;BME280_humidity;BME280_pressure;Samples;Min_cycle;Max_cycle;Signal;HPM_P1;HPM_P2
2022/09/29 00:00:37;;;;;;;7.35;4.90;;;;;;;;;;5037298;28;20271;-63
2022/09/29 00:03:24;;;;;;;6.22;4.50;;;;;;;;;;5037929;28;20200;-62
2022/09/29 00:05:53;;;;;;;8.13;5.95;;;;;;;;;;5037609;28;20631;-62
2022/09/29 00:08:22;;;;;;;45.03;13.27;;;;;;;;;;5037294;28;20255;-62
2022/09/29 00:10:49;;;;;;;34.75;11.73;;;;;;;;;;5037709;28;20212;-62
2022/09/29 00:13:16;;;;;;;38.50;13.88;;;;;;;;;;5037432;28;20227;-62
2022/09/29 00:15:44;;;;;;;25.55;9.30;;;;;;;;;;5037394;28;20239;-62
2022/09/29 00:18:10;;;;;;;14.63;6.35;;;;;;;;;;5037268;28;20240;-62
2022/09/29 00:20:40;;;;;;;9.38;5.32;;;;;;;;;;5037427;28;20201;-62
2022/09/29 00:23:07;;;;;;;10.20;5.22;;;;;;;;;;5037649;28;20270;-62
2022/09/29 00:25:34;;;;;;;8.55;4.60;;;;;;;;;;5037820;28;20592;-62
2022/09/29 00:28:01;;;;;;;5.93;3.72;;;;;;;;;;5037227;28;20225;-62
2022/09/29 00:30:28;;;;;;;6.95;3.60;;;;;;;;;;5037282;28;20197;-62
2022/09/29 00:32:55;;;;;;;8.88;3.40;;;;;;;;;;5036718;28;20204;-62
2022/09/29 00:35:22;;;;;;;5.97;3.70;;;;;;;;;;5036522;28;20220;-62
2022/09/29 00:37:49;;;;;;;5.95;3.60;;;;;;;;;;5037362;28;20219;-62
2022/09/29 00:40:16;;;;;;;8.10;3.60;;;;;;;;;;5036886;28;20287;-62
2022/09/29 00:42:43;;;;;;;6.57;3.22;;;;;;;;;;5037020;28;20214;-62
2022/09/29 00:45:13;;;;;;;9.90;3.65;;;;;;;;;;5037087;28;20278;-62
2022/09/29 00:47:42;;;;;;;7.95;3.30;;;;;;;;;;5037118;28;20571;-62
2022/09/29 00:50:17;;;;;;;9.18;4.15;;;;;;;;;;5035626;28;20205;-62
2022/09/29 00:52:47;;;;;;;6.22;3.60;;;;;;;;;;5037454;28;20189;-62
2022/09/29 00:55:27;;;;;;;5.43;3.50;;;;;;;;;;5056500;28;20555;-62
2022/09/29 00:58:04;;;;;;;6.78;3.97;;;;;;;;;;5057247;28;20231;-62
2022/09/29 01:00:32;;;;;;;6.30;3.55;;;;;;;;;;5055490;28;20196;-62
2022/09/29 01:03:01;;;;;;;4.07;3.30;;;;;;;;;;5056703;28;20196;-62
2022/09/29 01:05:33;;;;;;;5.00;3.58;;;;;;;;;;5056547;28;20250;-62
2022/09/29 01:08:07;;;;;;;6.95;4.05;;;;;;;;;;5055622;28;20227;-62
2022/09/29 01:10:34;;;;;;;19.48;7.68;;;;;;;;;;5055519;28;20291;-63
2022/09/29 01:13:02;;;;;;;12.48;5.40;;;;;;;;;;5056424;28;20211;-62
2022/09/29 01:15:29;;;;;;;8.95;4.40;;;;;;;;;;5055586;28;20196;-62
2022/09/29 01:17:56;;;;;;;12.00;3.60;;;;;;;;;;5055349;28;20214;-62
2022/09/29 01:20:23;;;;;;;8.35;4.40;;;;;;;;;;5056179;28;20204;-62
2022/09/29 01:23:33;;;;;;;4.82;3.28;;;;;;;;;;5055827;28;20634;-62
2022/09/29 01:26:22;;;;;;;5.45;2.90;;;;;;;;;;5055039;28;20193;-63
2022/09/29 01:28:55;;;;;;;6.43;3.08;;;;;;;;;;5055951;28;20310;-62
2022/09/29 01:31:29;;;;;;;4.53;3.00;;;;;;;;;;5055099;28;20211;-62
2022/09/29 01:34:35;;;;;;;5.00;3.47;;;;;;;;;;5056350;28;20548;-62
2022/09/29 01:37:26;;;;;;;5.10;2.90;;;;;;;;;;5056107;28;20203;-62
2022/09/29 01:40:12;;;;;;;5.63;2.75;;;;;;;;;;5055332;28;20211;-62
2022/09/29 01:42:54;;;;;;;5.10;3.03;;;;;;;;;;5055605;28;20199;-62
2022/09/29 01:45:28;;;;;;;6.32;3.10;;;;;;;;;;5055775;28;20627;-62
2022/09/29 01:48:00;;;;;;;7.32;3.40;;;;;;;;;;5054713;28;20203;-62
2022/09/29 01:50:45;;;;;;;9.32;3.10;;;;;;;;;;5055688;28;20269;-63
2022/09/29 01:53:36;;;;;;;6.93;3.47;;;;;;;;;;5054742;28;20231;-62
2022/09/29 01:56:07;;;;;;;6.72;3.75;;;;;;;;;;5054712;28;20319;-62
2022/09/29 01:58:50;;;;;;;45.60;13.70;;;;;;;;;;5054586;28;20200;-62
2022/09/29 02:01:19;;;;;;;15.98;6.68;;;;;;;;;;5038287;28;20519;-63
2022/09/29 02:03:50;;;;;;;11.00;4.97;;;;;;;;;;5055329;28;20598;-62
2022/09/29 02:06:31;;;;;;;9.80;5.20;;;;;;;;;;5037809;28;20591;-62
2022/09/29 02:08:59;;;;;;;12.27;3.88;;;;;;;;;;5037332;28;20529;-63
2022/09/29 02:11:27;;;;;;;9.48;3.90;;;;;;;;;;5053771;28;20210;-62
2022/09/29 02:14:00;;;;;;;5.70;3.45;;;;;;;;;;5053538;28;20638;-64
2022/09/29 02:16:34;;;;;;;5.68;3.63;;;;;;;;;;5054815;28;20200;-63
2022/09/29 02:19:08;;;;;;;6.50;3.40;;;;;;;;;;5053653;28;20199;-63
2022/09/29 02:21:36;;;;;;;10.73;2.90;;;;;;;;;;5053639;28;20210;-63
2022/09/29 02:24:03;;;;;;;5.03;3.00;;;;;;;;;;5054574;28;20196;-63
2022/09/29 02:26:33;;;;;;;6.80;3.70;;;;;;;;;;5041024;28;20537;-62
2022/09/29 02:29:01;;;;;;;6.82;2.88;;;;;;;;;;5039254;28;20232;-62
2022/09/29 02:31:29;;;;;;;5.25;3.17;;;;;;;;;;5033705;28;20295;-63
2022/09/29 02:33:56;;;;;;;4.68;2.92;;;;;;;;;;5034645;28;20586;-62
2022/09/29 02:36:59;;;;;;;5.25;3.33;;;;;;;;;;5034780;28;20204;-62
2022/09/29 02:39:52;;;;;;;7.25;3.25;;;;;;;;;;4994030;28;20209;-62
2022/09/29 02:42:30;;;;;;;6.00;3.60;;;;;;;;;;5032719;28;20196;-62
2022/09/29 02:45:23;;;;;;;6.25;3.10;;;;;;;;;;5033637;28;20545;-62
2022/09/29 02:48:11;;;;;;;6.07;3.80;;;;;;;;;;5034619;28;20208;-63
2022/09/29 02:51:09;;;;;;;30.80;10.85;;;;;;;;;;5034842;28;20222;-62
2022/09/29 02:53:46;;;;;;;29.95;9.05;;;;;;;;;;5033829;28;20208;-62
2022/09/29 02:56:19;;;;;;;20.42;6.75;;;;;;;;;;5034933;28;20319;-62
2022/09/29 02:58:52;;;;;;;11.75;5.40;;;;;;;;;;5034490;28;20216;-62
2022/09/29 03:01:19;;;;;;;16.77;5.30;;;;;;;;;;5034489;28;20208;-62
2022/09/29 03:03:46;;;;;;;10.48;5.07;;;;;;;;;;5033297;28;20236;-65
2022/09/29 03:06:14;;;;;;;8.93;4.65;;;;;;;;;;5033268;28;20208;-62
2022/09/29 03:08:41;;;;;;;6.28;3.55;;;;;;;;;;5033699;28;20319;-62
2022/09/29 03:11:08;;;;;;;6.90;3.90;;;;;;;;;;5033435;28;20218;-62
2022/09/29 03:13:34;;;;;;;6.38;3.42;;;;;;;;;;5031695;28;20211;-63
2022/09/29 03:16:01;;;;;;;7.93;3.33;;;;;;;;;;5032735;28;20197;-63
2022/09/29 03:18:29;;;;;;;4.95;3.10;;;;;;;;;;5037550;28;20208;-62
2022/09/29 03:20:56;;;;;;;10.77;3.13;;;;;;;;;;5055185;28;20274;-62
2022/09/29 03:23:23;;;;;;;5.00;2.60;;;;;;;;;;5053220;28;20295;-63
2022/09/29 03:25:50;;;;;;;7.20;3.15;;;;;;;;;;5054191;28;20593;-62
2022/09/29 03:28:17;;;;;;;6.50;3.50;;;;;;;;;;5054347;28;20204;-62
2022/09/29 03:30:44;;;;;;;9.05;3.63;;;;;;;;;;5054866;28;20228;-62
2022/09/29 03:33:11;;;;;;;4.82;2.80;;;;;;;;;;5053867;28;20546;-63
2022/09/29 03:35:38;;;;;;;5.07;2.90;;;;;;;;;;5051999;28;20203;-63
2022/09/29 03:38:10;;;;;;;8.15;2.92;;;;;;;;;;5053338;28;20224;-63
2022/09/29 03:40:37;;;;;;;9.68;5.10;;;;;;;;;;5052559;28;20277;-63
2022/09/29 03:43:04;;;;;;;6.28;3.88;;;;;;;;;;5053771;28;20219;-62
2022/09/29 03:45:31;;;;;;;6.00;3.65;;;;;;;;;;5053549;28;20634;-63
2022/09/29 03:47:58;;;;;;;13.93;5.60;;;;;;;;;;5051181;28;20219;-62
2022/09/29 03:50:25;;;;;;;9.93;4.15;;;;;;;;;;5045469;28;20227;-62
2022/09/29 03:52:52;;;;;;;10.65;4.40;;;;;;;;;;5052818;28;20200;-63
2022/09/29 03:55:19;;;;;;;7.15;3.58;;;;;;;;;;5055849;28;20231;-64
2022/09/29 03:57:46;;;;;;;5.35;3.30;;;;;;;;;;5057357;28;20317;-62
2022/09/29 04:00:13;;;;;;;5.15;3.05;;;;;;;;;;5049909;28;20219;-63
2022/09/29 04:02:40;;;;;;;4.45;2.65;;;;;;;;;;5045156;28;20235;-63
2022/09/29 04:05:07;;;;;;;4.82;3.03;;;;;;;;;;5056029;28;20219;-64
2022/09/29 04:07:34;;;;;;;4.07;3.22;;;;;;;;;;5043949;28;20224;-63
2022/09/29 04:10:01;;;;;;;7.45;3.33;;;;;;;;;;5047587;28;20259;-63
2022/09/29 04:12:28;;;;;;;4.95;3.20;;;;;;;;;;5040366;28;20297;-62
2022/09/29 04:14:55;;;;;;;5.50;3.13;;;;;;;;;;5044055;28;20252;-63
2022/09/29 04:17:22;;;;;;;6.15;3.15;;;;;;;;;;5055816;28;20297;-62
2022/09/29 04:19:49;;;;;;;7.45;3.30;;;;;;;;;;5056347;28;20293;-62
2022/09/29 04:22:19;;;;;;;9.82;2.97;;;;;;;;;;5055800;28;20235;-63
2022/09/29 04:24:50;;;;;;;5.65;3.03;;;;;;;;;;5056185;28;20232;-62
2022/09/29 04:27:17;;;;;;;5.65;3.20;;;;;;;;;;5049904;28;20234;-63
2022/09/29 04:29:44;;;;;;;5.15;2.95;;;;;;;;;;5035937;28;20267;-62
2022/09/29 04:32:11;;;;;;;5.13;3.20;;;;;;;;;;5036497;28;20287;-63
2022/09/29 04:34:38;;;;;;;5.80;4.22;;;;;;;;;;5036156;28;20244;-62
2022/09/29 04:37:10;;;;;;;5.97;3.47;;;;;;;;;;5051459;28;20736;-63
2022/09/29 04:39:37;;;;;;;5.90;3.03;;;;;;;;;;5046069;28;20228;-65
2022/09/29 04:42:04;;;;;;;9.70;5.10;;;;;;;;;;5035343;28;20244;-67
2022/09/29 04:44:31;;;;;;;21.50;11.52;;;;;;;;;;5036613;28;20287;-63
2022/09/29 04:46:58;;;;;;;11.60;5.38;;;;;;;;;;5052513;28;20243;-67
2022/09/29 04:49:25;;;;;;;22.05;7.97;;;;;;;;;;5051384;28;20234;-62
2022/09/29 04:51:52;;;;;;;10.85;5.50;;;;;;;;;;5053227;28;20281;-63
2022/09/29 04:54:19;;;;;;;9.30;4.20;;;;;;;;;;5053184;28;20192;-63
2022/09/29 04:56:48;;;;;;;9.30;4.82;;;;;;;;;;5053866;28;20294;-63
2022/09/29 04:59:16;;;;;;;5.82;3.20;;;;;;;;;;5054241;28;20204;-63
2022/09/29 05:01:43;;;;;;;5.53;3.65;;;;;;;;;;5054693;28;20192;-63
2022/09/29 05:04:12;;;;;;;5.18;3.13;;;;;;;;;;5054670;28;20635;-63
2022/09/29 05:06:39;;;;;;;8.85;3.22;;;;;;;;;;5052571;28;20188;-62
2022/09/29 05:09:06;;;;;;;6.22;3.25;;;;;;;;;;5054540;28;20638;-62
2022/09/29 05:11:34;;;;;;;5.93;3.30;;;;;;;;;;5054726;28;20283;-62
2022/09/29 05:14:00;;;;;;;6.57;3.70;;;;;;;;;;5054555;28;20232;-64
2022/09/29 05:16:28;;;;;;;7.72;3.25;;;;;;;;;;5054603;28;20211;-63
2022/09/29 05:18:55;;;;;;;4.25;2.78;;;;;;;;;;5055049;28;20203;-63
2022/09/29 05:21:22;;;;;;;7.57;3.28;;;;;;;;;;5053875;28;20196;-63
2022/09/29 05:23:55;;;;;;;5.82;3.30;;;;;;;;;;5053156;28;20238;-64
2022/09/29 05:26:22;;;;;;;4.30;2.88;;;;;;;;;;5054235;28;20513;-62
2022/09/29 05:28:49;;;;;;;8.70;3.47;;;;;;;;;;5053604;28;20200;-63
2022/09/29 05:31:17;;;;;;;7.00;3.22;;;;;;;;;;5054439;28;20223;-62
2022/09/29 05:33:44;;;;;;;6.35;3.55;;;;;;;;;;5055656;28;20208;-62
2022/09/29 05:36:12;;;;;;;9.35;4.35;;;;;;;;;;5055959;28;20200;-62
2022/09/29 05:38:39;;;;;;;7.47;4.07;;;;;;;;;;5055557;28;20200;-62
2022/09/29 05:41:09;;;;;;;7.75;3.95;;;;;;;;;;5055439;28;20695;-62
2022/09/29 05:43:37;;;;;;;17.05;10.45;;;;;;;;;;5055873;28;20198;-62
2022/09/29 05:46:07;;;;;;;8.23;5.20;;;;;;;;;;5055507;28;20634;-62
2022/09/29 05:48:35;;;;;;;16.05;6.97;;;;;;;;;;5055483;28;20634;-62
2022/09/29 05:51:16;;;;;;;14.02;7.55;;;;;;;;;;5055530;28;20323;-62
2022/09/29 05:53:49;;;;;;;9.75;5.50;;;;;;;;;;5055463;28;20200;-63
2022/09/29 05:56:26;;;;;;;7.97;4.95;;;;;;;;;;5055669;28;20327;-62
2022/09/29 05:58:53;;;;;;;10.88;5.63;;;;;;;;;;5056052;28;20203;-62
2022/09/29 06:01:23;;;;;;;7.68;5.03;;;;;;;;;;5055524;28;20296;-62
2022/09/29 06:03:52;;;;;;;7.38;4.38;;;;;;;;;;5055291;28;20200;-63
2022/09/29 06:06:22;;;;;;;8.85;4.20;;;;;;;;;;5053709;28;20204;-62
2022/09/29 06:08:50;;;;;;;6.90;3.72;;;;;;;;;;5055409;28;20204;-62
2022/09/29 06:11:22;;;;;;;5.78;3.42;;;;;;;;;;5055280;28;20223;-62
2022/09/29 06:13:50;;;;;;;5.45;3.30;;;;;;;;;;5055375;28;20231;-63
2022/09/29 06:16:19;;;;;;;7.13;3.40;;;;;;;;;;5054870;28;20239;-62
2022/09/29 06:18:47;;;;;;;8.38;3.65;;;;;;;;;;5055159;28;20599;-62
2022/09/29 06:21:22;;;;;;;5.93;3.65;;;;;;;;;;5055285;28;20200;-63
2022/09/29 06:23:50;;;;;;;5.60;3.55;;;;;;;;;;5055693;28;20223;-62
2022/09/29 06:26:18;;;;;;;5.55;3.25;;;;;;;;;;5054776;28;20204;-62
2022/09/29 06:28:51;;;;;;;5.75;3.42;;;;;;;;;;5054793;28;20271;-62
2022/09/29 06:31:20;;;;;;;5.22;3.25;;;;;;;;;;5054596;28;20322;-62
2022/09/29 06:33:48;;;;;;;6.68;4.00;;;;;;;;;;5054765;28;20188;-62
2022/09/29 06:39:16;;;;;;;5.93;3.40;;;;;;;;;;5054154;28;20520;-62
2022/09/29 06:41:47;;;;;;;6.10;3.90;;;;;;;;;;5054661;28;20282;-63
2022/09/29 06:44:14;;;;;;;8.68;3.90;;;;;;;;;;5054971;28;20214;-62
2022/09/29 06:46:42;;;;;;;4.63;3.72;;;;;;;;;;5055227;28;20195;-62
2022/09/29 06:49:14;;;;;;;7.20;3.88;;;;;;;;;;5054785;28;20200;-62
2022/09/29 06:51:42;;;;;;;6.10;4.00;;;;;;;;;;5054922;28;20200;-62
2022/09/29 06:54:19;;;;;;;8.00;4.85;;;;;;;;;;5054888;28;20196;-63
2022/09/29 06:56:47;;;;;;;5.68;4.30;;;;;;;;;;5054397;28;20620;-63
2022/09/29 06:59:15;;;;;;;9.07;4.78;;;;;;;;;;5054917;28;20211;-62
2022/09/29 07:01:42;;;;;;;8.02;4.32;;;;;;;;;;5054962;28;20204;-62
2022/09/29 07:04:09;;;;;;;7.43;4.50;;;;;;;;;;5054667;28;20224;-62
2022/09/29 07:06:36;;;;;;;8.70;4.50;;;;;;;;;;5054552;28;20208;-62
2022/09/29 07:09:03;;;;;;;6.57;4.25;;;;;;;;;;5054355;28;20266;-62
2022/09/29 07:11:30;;;;;;;5.45;3.95;;;;;;;;;;5054619;28;20310;-62
2022/09/29 07:13:57;;;;;;;6.63;3.75;;;;;;;;;;5054824;28;20277;-62
2022/09/29 07:16:24;;;;;;;7.32;4.28;;;;;;;;;;5054233;28;20199;-62
2022/09/29 07:18:51;;;;;;;7.30;4.40;;;;;;;;;;5054237;28;20685;-62
2022/09/29 07:21:20;;;;;;;6.00;3.92;;;;;;;;;;5054502;28;20204;-62
2022/09/29 07:23:47;;;;;;;7.78;4.03;;;;;;;;;;5054180;28;20269;-62
2022/09/29 07:26:17;;;;;;;5.97;3.90;;;;;;;;;;5054294;28;20630;-62
2022/09/29 07:28:46;;;;;;;7.53;4.55;;;;;;;;;;5055849;28;20208;-62
2022/09/29 07:31:15;;;;;;;5.50;3.58;;;;;;;;;;5058031;28;20236;-62
2022/09/29 07:33:43;;;;;;;4.50;3.78;;;;;;;;;;5058188;28;20591;-62
2022/09/29 07:36:11;;;;;;;10.95;3.97;;;;;;;;;;5058209;28;20204;-62
2022/09/29 07:38:38;;;;;;;7.55;4.45;;;;;;;;;;5056677;28;20204;-62
2022/09/29 07:41:07;;;;;;;6.32;4.63;;;;;;;;;;5058156;28;20215;-62
2022/09/29 07:43:34;;;;;;;7.65;4.20;;;;;;;;;;5058122;28;20211;-62
2022/09/29 07:46:01;;;;;;;6.72;4.38;;;;;;;;;;5057809;28;20226;-62
2022/09/29 07:48:30;;;;;;;7.07;4.05;;;;;;;;;;5057924;28;20535;-62
2022/09/29 07:51:02;;;;;;;6.88;4.15;;;;;;;;;;5057604;28;20744;-62
2022/09/29 07:53:29;;;;;;;9.07;4.50;;;;;;;;;;5058105;28;20251;-62
2022/09/29 07:56:02;;;;;;;5.13;3.85;;;;;;;;;;5057334;28;20657;-62
2022/09/29 07:58:31;;;;;;;4.75;3.83;;;;;;;;;;5058066;28;20238;-62
2022/09/29 08:00:59;;;;;;;5.72;4.22;;;;;;;;;;5057741;28;20220;-63
2022/09/29 08:03:26;;;;;;;7.00;4.28;;;;;;;;;;5072819;28;20208;-62
2022/09/29 08:05:53;;;;;;;7.30;5.35;;;;;;;;;;5057504;28;20582;-62
2022/09/29 08:08:20;;;;;;;7.28;4.53;;;;;;;;;;5057573;28;20239;-62
2022/09/29 08:10:47;;;;;;;5.68;4.10;;;;;;;;;;5057307;28;20219;-62
2022/09/29 08:13:19;;;;;;;5.43;4.25;;;;;;;;;;5057467;28;20209;-62
2022/09/29 08:15:46;;;;;;;6.20;4.28;;;;;;;;;;5057277;28;20204;-62
2022/09/29 08:18:13;;;;;;;5.43;4.25;;;;;;;;;;5057157;28;20646;-62
2022/09/29 08:20:40;;;;;;;5.43;4.15;;;;;;;;;;5057316;28;20211;-63
2022/09/29 08:23:07;;;;;;;6.03;4.47;;;;;;;;;;5057473;28;20215;-62
2022/09/29 08:25:35;;;;;;;6.32;4.50;;;;;;;;;;5057543;28;20204;-62
2022/09/29 08:28:02;;;;;;;7.13;4.20;;;;;;;;;;5057049;28;20570;-62
2022/09/29 08:30:29;;;;;;;6.25;4.70;;;;;;;;;;5057168;28;20215;-62
2022/09/29 08:32:56;;;;;;;6.97;4.65;;;;;;;;;;5056895;28;20208;-62
2022/09/29 08:35:24;;;;;;;9.88;4.57;;;;;;;;;;5057519;28;20208;-62
2022/09/29 08:37:54;;;;;;;6.47;4.68;;;;;;;;;;5057107;28;20289;-62
2022/09/29 08:40:22;;;;;;;6.97;4.80;;;;;;;;;;5056632;28;20219;-62
2022/09/29 08:43:10;;;;;;;6.78;4.28;;;;;;;;;;5056755;28;20223;-62
2022/09/29 08:45:45;;;;;;;7.32;5.00;;;;;;;;;;5056218;28;20188;-62
2022/09/29 08:48:28;;;;;;;7.05;3.92;;;;;;;;;;5055934;28;20519;-62
2022/09/29 08:50:57;;;;;;;8.30;4.47;;;;;;;;;;5056723;28;20305;-62
2022/09/29 08:53:26;;;;;;;5.25;4.45;;;;;;;;;;5055926;28;20258;-62
2022/09/29 08:56:02;;;;;;;6.50;4.47;;;;;;;;;;5057112;28;20208;-62
2022/09/29 08:58:31;;;;;;;6.43;3.92;;;;;;;;;;5056085;28;20179;-62
2022/09/29 09:01:10;;;;;;;5.50;3.78;;;;;;;;;;5055701;28;20216;-62
2022/09/29 09:03:49;;;;;;;5.55;4.05;;;;;;;;;;5056655;28;20238;-62
2022/09/29 09:06:17;;;;;;;6.78;4.25;;;;;;;;;;5056596;28;20204;-62
2022/09/29 09:09:10;;;;;;;6.53;3.35;;;;;;;;;;5056605;28;20704;-62
2022/09/29 09:11:47;;;;;;;6.43;3.70;;;;;;;;;;5056433;28;20576;-62
2022/09/29 09:14:22;;;;;;;7.00;4.00;;;;;;;;;;5056299;28;20302;-62
2022/09/29 09:16:52;;;;;;;5.80;3.65;;;;;;;;;;5056110;28;20210;-62
2022/09/29 09:19:31;;;;;;;4.32;3.45;;;;;;;;;;5056346;28;20200;-62
2022/09/29 09:22:21;;;;;;;6.13;3.22;;;;;;;;;;5056061;28;20219;-62
2022/09/29 09:25:03;;;;;;;8.07;4.30;;;;;;;;;;5056390;28;20219;-62
2022/09/29 09:27:37;;;;;;;7.38;4.75;;;;;;;;;;5055278;28;20188;-62
2022/09/29 09:30:11;;;;;;;5.72;4.00;;;;;;;;;;5055314;28;20207;-62
2022/09/29 09:32:46;;;;;;;8.07;3.70;;;;;;;;;;5055201;28;20649;-62
2022/09/29 09:35:28;;;;;;;5.07;3.38;;;;;;;;;;5055769;28;20187;-62
2022/09/29 09:37:59;;;;;;;5.20;3.88;;;;;;;;;;5056112;28;20212;-62
2022/09/29 09:40:30;;;;;;;3.60;3.20;;;;;;;;;;5055202;28;20208;-62
2022/09/29 09:43:09;;;;;;;5.15;3.47;;;;;;;;;;5054953;28;20211;-62
2022/09/29 09:45:50;;;;;;;8.55;3.28;;;;;;;;;;5055229;28;20199;-62
2022/09/29 09:48:27;;;;;;;5.93;3.15;;;;;;;;;;5054978;28;20257;-62
2022/09/29 09:51:00;;;;;;;6.80;3.00;;;;;;;;;;5054266;28;20314;-62
2022/09/29 09:53:32;;;;;;;3.38;2.97;;;;;;;;;;5054823;28;20263;-62
2022/09/29 09:56:13;;;;;;;3.80;2.88;;;;;;;;;;5055476;28;20204;-62
2022/09/29 09:59:08;;;;;;;4.10;3.20;;;;;;;;;;5055213;28;20204;-62
2022/09/29 10:01:35;;;;;;;5.40;2.97;;;;;;;;;;5055205;28;20199;-62
2022/09/29 10:04:02;;;;;;;4.28;2.33;;;;;;;;;;5055396;28;20200;-62
2022/09/29 10:06:29;;;;;;;3.03;2.28;;;;;;;;;;5055469;28;20204;-62
2022/09/29 10:08:56;;;;;;;3.40;2.50;;;;;;;;;;5054316;28;20238;-62
2022/09/29 10:11:25;;;;;;;6.25;2.95;;;;;;;;;;5055234;28;20224;-62
2022/09/29 10:14:13;;;;;;;4.82;3.20;;;;;;;;;;5055304;28;20228;-62
2022/09/29 10:16:54;;;;;;;3.53;2.90;;;;;;;;;;5055071;28;20215;-62
2022/09/29 10:19:23;;;;;;;3.90;2.95;;;;;;;;;;5055062;28;20238;-62
2022/09/29 10:21:50;;;;;;;4.53;3.47;;;;;;;;;;5055136;28;20208;-62
2022/09/29 10:24:30;;;;;;;4.28;3.30;;;;;;;;;;5055030;28;20605;-62
2022/09/29 10:26:59;;;;;;;4.15;3.60;;;;;;;;;;5054973;28;20211;-62
2022/09/29 10:29:32;;;;;;;5.55;4.07;;;;;;;;;;5054769;28;20310;-62
2022/09/29 10:32:05;;;;;;;16.90;8.65;;;;;;;;;;5055348;28;20228;-62
2022/09/29 10:34:35;;;;;;;25.92;12.57;;;;;;;;;;5055064;28;20219;-62
2022/09/29 10:37:19;;;;;;;16.88;8.75;;;;;;;;;;5054258;28;20188;-62
2022/09/29 10:39:49;;;;;;;34.72;16.05;;;;;;;;;;5055088;28;20192;-62
2022/09/29 10:42:30;;;;;;;45.20;20.15;;;;;;;;;;5054493;28;20249;-62
2022/09/29 10:45:12;;;;;;;10.80;7.35;;;;;;;;;;5054818;28;20204;-62
2022/09/29 10:47:41;;;;;;;11.23;6.75;;;;;;;;;;5054823;28;20195;-62
2022/09/29 10:50:20;;;;;;;9.88;5.05;;;;;;;;;;5054838;28;20200;-62
2022/09/29 10:52:55;;;;;;;7.10;5.25;;;;;;;;;;5055060;28;20286;-62
2022/09/29 10:55:26;;;;;;;5.68;5.03;;;;;;;;;;5054682;28;20231;-62
2022/09/29 10:57:56;;;;;;;6.40;4.60;;;;;;;;;;5054338;28;20228;-62
2022/09/29 11:00:34;;;;;;;7.10;5.10;;;;;;;;;;5054772;28;20685;-62
2022/09/29 11:03:20;;;;;;;7.00;5.00;;;;;;;;;;5055844;28;20209;-62
2022/09/29 11:05:51;;;;;;;8.25;5.60;;;;;;;;;;5058222;28;20200;-62
2022/09/29 11:08:24;;;;;;;6.75;5.40;;;;;;;;;;5058557;28;20215;-62
2022/09/29 11:11:19;;;;;;;7.90;4.85;;;;;;;;;;5059437;28;20334;-62
2022/09/29 11:13:46;;;;;;;7.90;4.90;;;;;;;;;;5058708;28;20515;-62
2022/09/29 11:16:18;;;;;;;6.45;4.93;;;;;;;;;;5058684;28;20212;-62
2022/09/29 11:18:51;;;;;;;5.75;4.32;;;;;;;;;;5057047;28;20618;-62
2022/09/29 11:21:18;;;;;;;5.55;4.47;;;;;;;;;;5057793;28;20215;-62
2022/09/29 11:24:17;;;;;;;5.15;3.92;;;;;;;;;;5058577;28;20226;-62
2022/09/29 11:27:34;;;;;;;6.65;3.83;;;;;;;;;;5057663;28;20223;-62
2022/09/29 11:30:09;;;;;;;6.65;3.97;;;;;;;;;;5036463;28;20196;-62
2022/09/29 11:32:48;;;;;;;4.57;3.63;;;;;;;;;;5036488;28;20224;-62
2022/09/29 11:35:43;;;;;;;5.03;3.90;;;;;;;;;;5036741;28;20196;-62
2022/09/29 11:38:22;;;;;;;4.80;3.80;;;;;;;;;;5036700;28;20267;-62
2022/09/29 11:41:13;;;;;;;5.03;3.33;;;;;;;;;;5036529;28;20189;-62
2022/09/29 11:44:00;;;;;;;5.57;4.20;;;;;;;;;;5020243;28;20274;-62
2022/09/29 11:46:55;;;;;;;5.80;3.30;;;;;;;;;;5034987;28;20204;-62
2022/09/29 11:49:41;;;;;;;4.20;3.00;;;;;;;;;;5036235;28;20214;-62
2022/09/29 11:52:35;;;;;;;3.70;3.20;;;;;;;;;;5019920;28;20220;-62
2022/09/29 11:55:25;;;;;;;3.92;3.45;;;;;;;;;;5024536;28;20198;-62
2022/09/29 11:58:03;;;;;;;5.60;3.45;;;;;;;;;;5004707;28;20606;-63
2022/09/29 12:01:00;;;;;;;4.00;3.60;;;;;;;;;;4986904;28;20201;-63
2022/09/29 12:03:43;;;;;;;2.90;2.70;;;;;;;;;;5009367;28;20215;-63
2022/09/29 12:06:32;;;;;;;4.72;3.33;;;;;;;;;;5056080;28;20626;-63
2022/09/29 12:09:38;;;;;;;4.32;3.28;;;;;;;;;;5053576;28;20193;-64
2022/09/29 12:12:21;;;;;;;3.85;3.35;;;;;;;;;;5041642;28;20223;-63
2022/09/29 12:15:28;;;;;;;4.82;3.20;;;;;;;;;;5053386;28;20203;-64
2022/09/29 12:17:59;;;;;;;3.17;2.80;;;;;;;;;;5055707;28;20196;-64
2022/09/29 12:20:29;;;;;;;4.38;3.45;;;;;;;;;;5052688;28;20258;-63
2022/09/29 12:23:00;;;;;;;4.63;3.65;;;;;;;;;;5054986;28;20542;-63
2022/09/29 12:25:28;;;;;;;3.65;3.13;;;;;;;;;;5055270;28;20238;-63
2022/09/29 12:28:26;;;;;;;3.78;2.63;;;;;;;;;;5051199;28;20552;-63
2022/09/29 12:31:03;;;;;;;3.55;3.08;;;;;;;;;;5051195;28;20192;-64
2022/09/29 12:33:55;;;;;;;6.32;2.88;;;;;;;;;;5040618;28;20552;-63
2022/09/29 12:36:45;;;;;;;4.28;3.00;;;;;;;;;;5054675;28;20674;-64
2022/09/29 12:39:33;;;;;;;3.50;2.67;;;;;;;;;;5052479;28;20232;-64
2022/09/29 12:42:26;;;;;;;4.80;3.30;;;;;;;;;;5053736;28;20228;-64
2022/09/29 12:44:59;;;;;;;3.10;2.65;;;;;;;;;;5053469;28;20224;-64
2022/09/29 12:47:44;;;;;;;4.13;3.05;;;;;;;;;;5051749;28;20220;-64
2022/09/29 12:50:21;;;;;;;4.47;2.65;;;;;;;;;;5055238;28;20350;-63
2022/09/29 12:52:55;;;;;;;6.63;3.05;;;;;;;;;;5051455;28;20241;-63
2022/09/29 12:55:48;;;;;;;3.95;2.72;;;;;;;;;;5054150;28;20235;-63
2022/09/29 12:58:25;;;;;;;6.57;3.35;;;;;;;;;;5049623;28;20243;-63
2022/09/29 13:00:59;;;;;;;4.75;3.42;;;;;;;;;;5051368;28;20235;-63
2022/09/29 13:04:13;;;;;;;5.10;3.05;;;;;;;;;;5046032;28;20616;-63
2022/09/29 13:06:47;;;;;;;3.67;3.05;;;;;;;;;;5053452;28;20223;-65
2022/09/29 13:09:20;;;;;;;3.35;3.00;;;;;;;;;;5054112;28;20216;-63
2022/09/29 13:11:53;;;;;;;3.15;2.40;;;;;;;;;;5051344;28;20230;-64
2022/09/29 13:14:33;;;;;;;3.13;2.17;;;;;;;;;;5053289;28;20259;-64
2022/09/29 13:17:00;;;;;;;4.53;2.60;;;;;;;;;;5051728;28;20247;-64
2022/09/29 13:20:22;;;;;;;3.30;2.50;;;;;;;;;;5050551;28;20227;-64
2022/09/29 13:23:14;;;;;;;4.65;2.72;;;;;;;;;;4996147;28;20599;-64
2022/09/29 13:26:15;;;;;;;4.40;2.70;;;;;;;;;;5009315;28;20229;-64
2022/09/29 13:28:46;;;;;;;2.83;2.47;;;;;;;;;;5047081;28;20216;-64
2022/09/29 13:31:17;;;;;;;3.38;2.60;;;;;;;;;;5052673;28;20276;-64
2022/09/29 13:33:50;;;;;;;3.03;2.35;;;;;;;;;;5051438;28;20247;-64
2022/09/29 13:36:25;;;;;;;3.90;2.33;;;;;;;;;;5053166;28;20224;-64
2022/09/29 13:38:55;;;;;;;3.42;2.42;;;;;;;;;;5050502;28;20215;-64
2022/09/29 13:41:23;;;;;;;2.83;2.55;;;;;;;;;;5042240;28;20649;-64
2022/09/29 13:43:49;;;;;;;4.53;3.00;;;;;;;;;;5050328;28;20322;-64
2022/09/29 13:46:28;;;;;;;3.60;2.70;;;;;;;;;;5050233;28;20228;-64
2022/09/29 13:49:02;;;;;;;3.30;2.70;;;;;;;;;;5048619;28;20243;-64
2022/09/29 13:51:59;;;;;;;2.85;2.55;;;;;;;;;;5046766;28;20232;-64
2022/09/29 13:54:32;;;;;;;3.35;2.72;;;;;;;;;;5028178;28;20242;-64
2022/09/29 13:57:02;;;;;;;3.83;2.95;;;;;;;;;;5049838;28;20240;-64
2022/09/29 13:59:29;;;;;;;3.40;2.85;;;;;;;;;;5048562;28;20224;-64
2022/09/29 14:01:56;;;;;;;3.35;2.95;;;;;;;;;;5048711;28;20239;-64
2022/09/29 14:04:42;;;;;;;3.90;3.00;;;;;;;;;;5049227;28;20556;-64
2022/09/29 14:07:48;;;;;;;4.07;3.15;;;;;;;;;;5042598;28;20251;-65
2022/09/29 14:10:37;;;;;;;6.32;3.47;;;;;;;;;;5043165;28;20224;-64
2022/09/29 14:13:17;;;;;;;3.95;3.00;;;;;;;;;;5049706;28;20293;-65
2022/09/29 14:15:49;;;;;;;6.15;4.57;;;;;;;;;;5033733;28;20651;-65
2022/09/29 14:18:27;;;;;;;4.53;3.50;;;;;;;;;;5047182;28;20548;-64
2022/09/29 14:21:09;;;;;;;6.22;3.40;;;;;;;;;;5052919;28;20654;-64
2022/09/29 14:23:56;;;;;;;4.03;3.42;;;;;;;;;;5053505;28;20230;-64
2022/09/29 14:26:42;;;;;;;6.47;4.40;;;;;;;;;;5041192;28;20220;-63
2022/09/29 14:29:18;;;;;;;4.68;3.10;;;;;;;;;;5052059;28;20230;-64
2022/09/29 14:31:50;;;;;;;4.43;3.78;;;;;;;;;;5048161;28;20727;-65
2022/09/29 14:34:20;;;;;;;8.82;4.40;;;;;;;;;;5047384;28;20219;-66
2022/09/29 14:36:48;;;;;;;4.55;4.03;;;;;;;;;;5031242;28;20258;-64
2022/09/29 14:39:16;;;;;;;5.03;4.13;;;;;;;;;;5049591;28;20307;-65
2022/09/29 14:41:59;;;;;;;7.00;3.72;;;;;;;;;;5051490;28;20247;-64
2022/09/29 14:51:56;;;;;;;6.70;4.40;;;;;;;;;;5052139;28;20224;-64
2022/09/29 14:53:40;;;;;;;8.27;5.22;;;;;;;;;;5031726;28;20240;-64
2022/09/29 14:56:29;;;;;;;5.75;4.20;;;;;;;;;;5031617;28;20251;-65
2022/09/29 14:59:06;;;;;;;7.20;3.88;;;;;;;;;;5031349;28;20224;-64
2022/09/29 15:01:35;;;;;;;6.38;3.70;;;;;;;;;;5030261;28;20228;-65
2022/09/29 15:04:10;;;;;;;4.93;3.58;;;;;;;;;;5031317;28;20232;-63
2022/09/29 15:06:49;;;;;;;5.45;3.90;;;;;;;;;;5033760;28;20228;-64
2022/09/29 15:09:24;;;;;;;5.47;3.80;;;;;;;;;;5033313;28;20229;-64
2022/09/29 15:11:53;;;;;;;5.18;3.47;;;;;;;;;;5032508;28;20227;-63
2022/09/29 15:14:29;;;;;;;6.80;3.33;;;;;;;;;;5033490;28;20224;-64
2022/09/29 15:17:30;;;;;;;6.40;3.35;;;;;;;;;;5033029;28;20539;-63
2022/09/29 15:20:21;;;;;;;3.42;2.88;;;;;;;;;;5052138;28;20269;-63
2022/09/29 15:23:07;;;;;;;3.95;2.70;;;;;;;;;;5053155;28;20232;-65
2022/09/29 15:25:38;;;;;;;3.53;2.85;;;;;;;;;;5052670;28;20226;-64
2022/09/29 15:28:14;;;;;;;4.25;2.65;;;;;;;;;;5050595;28;20224;-64
2022/09/29 15:30:42;;;;;;;4.75;3.10;;;;;;;;;;5046643;28;20224;-66